KCDC

Cedar City Regional Airport

Cedar City, Utah, USA
METAR KCDC 181353Z AUTO 25003KT 10SM OVC065 M01/M01 A3013 RMK AO2 SLP198 T10061006
Observed Flight Rules
Jan-18 @ 13:53 UTC (41 minutes ago) Visual Flight Rules
Wind Visibility Clouds
250° at 3 knots 10 miles
  • Overcast at 6,500' AGL
Temperatures Readings
Current -1°C / 30°F
Dewpoint -1°C / 30°F
Humidity 100%
Altimeter 30.13" Hg
Pressure 1019.8 hPa
Elevation 1714
METAR KCDC 181353Z AUTO 25003KT 10SM OVC065 M01/M01 A3013 RMK AO2 SLP198 T10061006
Observed Flight Rules
Jan-18 @ 13:53 UTC
(41 minutes ago)
VFR
Wind Visibility
250° at 3 knots 10 miles
Clouds
  • Overcast at 6,500' AGL
Temperature Dewpoint
-1°C / 30°F -1°C / 30°F
Humidity Altimeter Pressure
100% 30.13" Hg 1019.8 hPa